createdAt,value
2018-07-24T00:00:12.665Z,65.82
2018-07-24T00:01:12.642Z,65.72
2018-07-24T00:02:12.632Z,65.82
2018-07-24T00:03:12.641Z,66.35
2018-07-24T00:04:12.612Z,66.32
2018-07-24T00:05:12.611Z,66.42
2018-07-24T00:06:12.602Z,66.32
2018-07-24T00:07:12.580Z,66.02
2018-07-24T00:08:12.569Z,66.02
2018-07-24T00:09:12.576Z,66.55
2018-07-24T00:10:12.544Z,65.82
2018-07-24T00:11:12.535Z,66.32
2018-07-24T00:12:12.525Z,65.72
2018-07-24T00:13:12.530Z,66.22
2018-07-24T00:14:12.504Z,65.95
2018-07-24T00:15:12.492Z,66.22
2018-07-24T00:16:12.497Z,66.05
2018-07-24T00:17:12.470Z,66.32
2018-07-24T00:18:12.473Z,66.05
2018-07-24T00:19:12.449Z,66.25
2018-07-24T00:20:12.441Z,66.35
2018-07-24T00:21:12.443Z,66.45
2018-07-24T00:22:12.415Z,66.15
2018-07-24T00:23:12.410Z,66.15
2018-07-24T00:24:12.398Z,66.35
2018-07-24T00:25:12.387Z,66.88
2018-07-24T00:26:12.414Z,66.78
2018-07-24T00:27:12.362Z,66.78
2018-07-24T00:28:12.354Z,66.78
2018-07-24T00:29:12.341Z,67.18
2018-07-24T00:30:12.331Z,66.78
2018-07-24T00:31:12.323Z,66.88
2018-07-24T00:32:12.336Z,66.15
2018-07-24T00:33:12.301Z,66.68
2018-07-24T00:34:12.292Z,66.95
2018-07-24T00:35:12.279Z,66.99
2018-07-24T00:36:12.266Z,66.35
2018-07-24T00:37:12.256Z,66.35
2018-07-24T00:38:12.259Z,66.18
2018-07-24T00:39:12.237Z,66.45
2018-07-24T00:40:12.239Z,66.25
2018-07-24T00:41:12.215Z,66.28
2018-07-24T00:42:12.200Z,66.05
2018-07-24T00:43:12.193Z,65.88
2018-07-24T00:44:12.181Z,66.18
2018-07-24T00:45:12.195Z,66.68
2018-07-24T00:46:12.160Z,66.28
2018-07-24T00:47:12.148Z,66.99
2018-07-24T00:48:12.139Z,66.68
2018-07-24T00:49:12.128Z,67.08
2018-07-24T00:50:12.150Z,66.68
2018-07-24T00:51:12.106Z,66.38
2018-07-24T00:52:12.094Z,66.68
2018-07-24T00:53:12.082Z,66.78
2018-07-24T00:54:12.101Z,66.38
2018-07-24T00:55:12.061Z,66.38
2018-07-24T00:56:12.075Z,66.38
2018-07-24T00:57:12.041Z,66.58
2018-07-24T00:58:12.030Z,66.28
2018-07-24T00:59:12.018Z,66.38
2018-07-24T01:00:12.010Z,66.35
2018-07-24T01:01:11.999Z,66.18
2018-07-24T01:02:11.997Z,66.48
2018-07-24T01:03:11.973Z,66.38
2018-07-24T01:04:11.964Z,66.28
2018-07-24T01:05:11.956Z,66.28
2018-07-24T01:06:12.007Z,66.28
2018-07-24T01:07:11.953Z,66.48
2018-07-24T01:08:11.921Z,66.78
2018-07-24T01:09:11.913Z,66.28
2018-07-24T01:10:11.906Z,66.28
2018-07-24T01:11:11.893Z,66.28
2018-07-24T01:12:11.881Z,66.48
2018-07-24T01:13:11.896Z,66.38
2018-07-24T01:14:11.903Z,66.88
2018-07-24T01:15:11.846Z,66.18
2018-07-24T01:16:11.838Z,66.68
2018-07-24T01:17:11.830Z,66.68
2018-07-24T01:18:11.816Z,66.68
2018-07-24T01:19:11.825Z,66.99
2018-07-24T01:20:11.795Z,66.88
2018-07-24T01:21:11.786Z,66.88
2018-07-24T01:22:11.772Z,66.88
2018-07-24T01:23:11.763Z,66.99
2018-07-24T01:24:11.750Z,66.78
2018-07-24T01:25:11.755Z,66.99
2018-07-24T01:26:11.732Z,67.38
2018-07-24T01:27:11.734Z,66.28
2018-07-24T01:28:11.710Z,66.58
2018-07-24T01:29:11.698Z,66.88
2018-07-24T01:30:11.700Z,66.78
2018-07-24T01:31:11.675Z,66.99
2018-07-24T01:32:11.666Z,67.49
2018-07-24T01:33:11.654Z,67.42
2018-07-24T01:34:11.646Z,67.49
2018-07-24T01:35:11.645Z,66.82
2018-07-24T01:36:11.625Z,67.42
2018-07-24T01:37:11.615Z,67.61
2018-07-24T01:38:11.609Z,67.72
2018-07-24T01:39:11.593Z,67.29
2018-07-24T01:40:11.582Z,67.99
2018-07-24T01:41:11.582Z,67.11
2018-07-24T01:42:11.557Z,68.02
2018-07-24T01:43:11.567Z,67.02
2018-07-24T01:44:11.536Z,67.58
2018-07-24T01:45:11.528Z,67.22
2018-07-24T01:46:11.517Z,67.52
2018-07-24T01:47:11.519Z,67.61
2018-07-24T01:48:11.501Z,67.92
2018-07-24T01:49:11.497Z,66.82
2018-07-24T01:50:11.472Z,66.52
2018-07-24T01:51:11.461Z,67.61
2018-07-24T01:52:11.452Z,68.02
2018-07-24T01:53:11.442Z,67.42
2018-07-24T01:54:11.447Z,67.92
2018-07-24T01:55:11.422Z,67.72
2018-07-24T01:56:11.406Z,67.82
2018-07-24T01:57:11.395Z,67.92
2018-07-24T01:58:11.388Z,68.15
2018-07-24T01:59:11.378Z,67.75
2018-07-24T02:00:11.381Z,68.02
2018-07-24T02:01:11.353Z,67.85
2018-07-24T02:02:11.342Z,67.95
2018-07-24T02:03:11.331Z,68.15
2018-07-24T02:04:11.323Z,68.05
2018-07-24T02:05:11.323Z,68.22
2018-07-24T02:06:11.299Z,68.25
2018-07-24T02:07:11.292Z,67.95
2018-07-24T02:08:11.277Z,68.15
2018-07-24T02:09:11.268Z,68.25
2018-07-24T02:10:11.273Z,68.15
2018-07-24T02:11:11.250Z,67.75
2018-07-24T02:12:11.235Z,67.95
2018-07-24T02:13:11.227Z,68.05
2018-07-24T02:14:11.215Z,67.85
2018-07-24T02:15:11.217Z,67.95
2018-07-24T02:16:11.196Z,67.85
2018-07-24T02:17:11.182Z,67.95
2018-07-24T02:18:11.171Z,67.95
2018-07-24T02:19:11.163Z,68.08
2018-07-24T02:20:11.193Z,68.25
2018-07-24T02:21:11.142Z,68.15
2018-07-24T02:22:11.130Z,68.18
2018-07-24T02:23:11.118Z,68.25
2018-07-24T02:24:11.107Z,68.25
2018-07-24T02:25:11.100Z,67.98
2018-07-24T02:26:11.098Z,68.15
2018-07-24T02:27:11.074Z,68.25
2018-07-24T02:28:11.064Z,68.59
2018-07-24T02:29:11.053Z,68.79
2018-07-24T02:30:11.042Z,68.08
2018-07-24T02:31:11.045Z,68.99
2018-07-24T02:32:11.021Z,68.79
2018-07-24T02:33:11.014Z,68.29
2018-07-24T02:34:11.000Z,68.29
2018-07-24T02:35:10.990Z,68.08
2018-07-24T02:36:10.994Z,68.38
2018-07-24T02:37:10.971Z,68.38
2018-07-24T02:38:10.958Z,68.29
2018-07-24T02:39:10.947Z,68.38
2018-07-24T02:40:10.945Z,68.08
2018-07-24T02:41:10.924Z,67.88
2018-07-24T02:42:10.927Z,67.88
2018-07-24T02:43:10.906Z,67.88
2018-07-24T02:44:10.896Z,68.38
2018-07-24T02:45:10.882Z,68.21
2018-07-24T02:46:10.873Z,68.12
2018-07-24T02:47:10.870Z,68.32
2018-07-24T02:48:10.851Z,68.32
2018-07-24T02:49:10.839Z,68.62
2018-07-24T02:50:10.830Z,68.82
2018-07-24T02:51:10.817Z,68.62
2018-07-24T02:52:10.839Z,68.82
2018-07-24T02:53:10.796Z,68.82
2018-07-24T02:54:10.788Z,68.82
2018-07-24T02:55:10.777Z,68.82
2018-07-24T02:56:10.768Z,68.41
2018-07-24T02:57:10.752Z,68.21
2018-07-24T02:58:10.761Z,68.92
2018-07-24T02:59:10.734Z,68.41
2018-07-24T03:00:10.720Z,68.32
2018-07-24T03:01:10.713Z,68.12
2018-07-24T03:02:10.703Z,68.41
2018-07-24T03:03:10.702Z,68.59
2018-07-24T03:04:10.686Z,68.32
2018-07-24T03:05:10.668Z,68.32
2018-07-24T03:06:10.656Z,68.41
2018-07-24T03:07:10.645Z,68.32
2018-07-24T03:08:10.647Z,68.32
2018-07-24T03:09:10.623Z,68.52
2018-07-24T03:10:10.613Z,68.41
2018-07-24T03:11:10.600Z,68.52
2018-07-24T03:12:10.613Z,68.02
2018-07-24T03:13:10.579Z,68.21
2018-07-24T03:14:10.578Z,68.45
2018-07-24T03:15:10.558Z,68.12
2018-07-24T03:16:10.579Z,68.45
2018-07-24T03:17:10.540Z,68.45
2018-07-24T03:18:10.548Z,68.35
2018-07-24T03:19:10.514Z,68.35
2018-07-24T03:20:10.504Z,68.75
2018-07-24T03:21:10.491Z,68.55
2018-07-24T03:22:10.484Z,68.85
2018-07-24T03:23:10.473Z,68.65
2018-07-24T03:24:10.474Z,68.45
2018-07-24T03:25:10.453Z,68.65
2018-07-24T03:26:10.441Z,68.95
2018-07-24T03:27:10.432Z,69.76
2018-07-24T03:28:10.430Z,69.65
2018-07-24T03:29:10.409Z,69.65
2018-07-24T03:30:10.397Z,69.65
2018-07-24T03:31:10.398Z,69.65
2018-07-24T03:32:10.383Z,69.45
2018-07-24T03:33:10.378Z,69.45
2018-07-24T03:34:10.351Z,69.76
2018-07-24T03:35:10.341Z,69.45
2018-07-24T03:36:10.329Z,69.76
2018-07-24T03:37:10.334Z,69.65
2018-07-24T03:38:10.311Z,69.45
2018-07-24T03:39:10.296Z,69.56
2018-07-24T03:40:10.305Z,69.65
2018-07-24T03:41:10.279Z,69.56
2018-07-24T03:42:10.272Z,69.59
2018-07-24T03:43:10.276Z,69.65
2018-07-24T03:44:10.246Z,69.89
2018-07-24T03:45:10.288Z,69.45
2018-07-24T03:46:10.224Z,69.69
2018-07-24T03:47:10.211Z,69.59
2018-07-24T03:48:10.199Z,69.56
2018-07-24T03:49:10.201Z,69.79
2018-07-24T03:50:10.178Z,69.69
2018-07-24T03:51:10.165Z,69.99
2018-07-24T03:52:10.157Z,69.69
2018-07-24T03:53:10.193Z,69.59
2018-07-24T03:54:10.136Z,69.59
2018-07-24T03:55:10.128Z,69.69
2018-07-24T03:56:10.115Z,69.69
2018-07-24T03:57:10.100Z,69.69
2018-07-24T03:58:10.090Z,69.59
2018-07-24T03:59:10.095Z,69.69
2018-07-24T04:00:10.069Z,69.69
2018-07-24T04:01:10.055Z,69.49
2018-07-24T04:02:10.070Z,69.69
2018-07-24T04:03:10.036Z,69.79
2018-07-24T04:04:10.038Z,69.69
2018-07-24T04:05:10.031Z,69.79
2018-07-24T04:06:09.999Z,69.69
2018-07-24T04:07:09.988Z,69.69
2018-07-24T04:08:09.980Z,69.69
2018-07-24T04:09:09.966Z,69.38
2018-07-24T04:10:09.954Z,69.69
2018-07-24T04:11:09.962Z,69.79
2018-07-24T04:12:09.934Z,69.59
2018-07-24T04:13:09.927Z,69.69
2018-07-24T04:14:09.910Z,69.59
2018-07-24T04:15:09.899Z,69.59
2018-07-24T04:16:09.891Z,69.69
2018-07-24T04:17:09.891Z,69.89
2018-07-24T04:18:09.868Z,69.96
2018-07-24T04:19:09.858Z,69.69
2018-07-24T04:20:09.848Z,69.65
2018-07-24T04:21:09.856Z,69.89
2018-07-24T04:22:09.823Z,68.88
2018-07-24T04:23:09.814Z,69.79
2018-07-24T04:24:09.817Z,69.89
2018-07-24T04:25:09.793Z,69.65
2018-07-24T04:26:09.795Z,69.69
2018-07-24T04:27:09.786Z,69.96
2018-07-24T04:28:09.760Z,69.45
2018-07-24T04:29:09.749Z,69.76
2018-07-24T04:30:09.736Z,69.65
2018-07-24T04:31:09.785Z,69.15
2018-07-24T04:32:09.723Z,69.45
2018-07-24T04:33:09.702Z,69.35
2018-07-24T04:34:09.694Z,69.76
2018-07-24T04:35:09.686Z,69.89
2018-07-24T04:36:09.673Z,69.65
2018-07-24T04:37:09.681Z,69.96
2018-07-24T04:38:09.652Z,69.96
2018-07-24T04:39:09.640Z,70.06
2018-07-24T04:40:09.688Z,69.45
2018-07-24T04:41:09.622Z,69.65
2018-07-24T04:42:09.618Z,69.76
2018-07-24T04:43:09.618Z,69.42
2018-07-24T04:44:09.587Z,70.03
2018-07-24T04:45:09.576Z,68.85
2018-07-24T04:46:09.564Z,68.62
2018-07-24T04:47:09.552Z,68.62
2018-07-24T04:48:09.541Z,68.72
2018-07-24T04:49:09.542Z,69.92
2018-07-24T04:50:09.520Z,69.52
2018-07-24T04:51:09.522Z,69.52
2018-07-24T04:52:09.501Z,69.72
2018-07-24T04:53:09.490Z,69.62
2018-07-24T04:54:09.489Z,68.82
2018-07-24T04:55:09.469Z,68.99
2018-07-24T04:56:09.460Z,68.99
2018-07-24T04:57:09.448Z,68.38
2018-07-24T04:58:09.438Z,68.79
2018-07-24T04:59:09.434Z,68.68
2018-07-24T05:00:09.424Z,68.79
2018-07-24T05:01:09.405Z,68.35
2018-07-24T05:02:09.392Z,68.15
2018-07-24T05:03:09.420Z,68.65
2018-07-24T05:04:09.372Z,68.85
2018-07-24T05:05:09.372Z,68.29
2018-07-24T05:06:09.351Z,68.35
2018-07-24T05:07:09.338Z,68.65
2018-07-24T05:08:09.329Z,67.95
2018-07-24T05:09:09.317Z,67.95
2018-07-24T05:10:09.329Z,68.35
2018-07-24T05:11:09.296Z,68.55
2018-07-24T05:12:09.287Z,68.45
2018-07-24T05:13:09.276Z,67.72
2018-07-24T05:14:09.264Z,68.35
2018-07-24T05:15:09.254Z,68.12
2018-07-24T05:16:09.260Z,67.92
2018-07-24T05:17:09.230Z,68.22
2018-07-24T05:18:09.223Z,68.22
2018-07-24T05:19:09.209Z,67.92
2018-07-24T05:20:09.197Z,67.82
2018-07-24T05:21:09.186Z,67.72
2018-07-24T05:22:09.189Z,67.08
2018-07-24T05:23:09.165Z,67.99
2018-07-24T05:24:09.157Z,67.79
2018-07-24T05:25:09.143Z,67.49
2018-07-24T05:26:09.146Z,66.65
2018-07-24T05:27:09.123Z,66.75
2018-07-24T05:28:09.114Z,66.85
2018-07-24T05:29:09.101Z,67.62
2018-07-24T05:30:09.092Z,66.62
2018-07-24T05:31:09.092Z,66.49
2018-07-24T05:32:09.082Z,65.69
2018-07-24T05:33:09.092Z,65.75
2018-07-24T05:34:09.050Z,65.12
2018-07-24T05:35:09.038Z,63.92
2018-07-24T05:36:09.028Z,63.92
2018-07-24T05:37:09.056Z,63.39
2018-07-24T05:38:09.003Z,62.96
2018-07-24T05:39:08.992Z,62.43
2018-07-24T05:40:08.984Z,62.40
2018-07-24T05:41:08.971Z,61.18
2018-07-24T05:42:08.962Z,60.75
2018-07-24T05:43:08.961Z,59.12
2018-07-24T05:44:08.940Z,58.97
2018-07-24T05:45:08.932Z,57.42
2018-07-24T05:46:08.921Z,57.49
2018-07-24T05:47:08.927Z,56.04
2018-07-24T05:48:08.896Z,54.65
2018-07-24T05:49:08.886Z,54.53
2018-07-24T05:50:08.875Z,54.30
2018-07-24T05:51:08.867Z,53.61
2018-07-24T05:52:08.851Z,53.68
2018-07-24T05:53:08.862Z,53.45
2018-07-24T05:54:08.833Z,52.47
2018-07-24T05:55:08.835Z,53.96
2018-07-24T05:56:08.809Z,53.75
2018-07-24T05:57:08.798Z,53.53
2018-07-24T05:58:08.788Z,53.33
2018-07-24T05:59:08.790Z,52.73
2018-07-24T06:00:08.765Z,52.94
2018-07-24T06:01:08.756Z,52.84
2018-07-24T06:02:08.746Z,52.34
2018-07-24T06:03:08.749Z,53.03
2018-07-24T06:04:08.723Z,53.23
2018-07-24T06:05:08.711Z,53.23
2018-07-24T06:06:08.703Z,53.23
2018-07-24T06:07:08.690Z,53.60
2018-07-24T06:08:08.698Z,53.50
2018-07-24T06:09:08.669Z,53.33
2018-07-24T06:10:08.662Z,53.41
2018-07-24T06:11:08.647Z,53.60
2018-07-24T06:12:08.638Z,53.01
2018-07-24T06:13:08.671Z,51.92
2018-07-24T06:14:08.631Z,51.42
2018-07-24T06:15:08.611Z,51.12
2018-07-24T06:16:08.598Z,50.43
2018-07-24T06:17:08.637Z,50.51
2018-07-24T06:18:08.574Z,48.13
2018-07-24T06:19:08.578Z,48.25
2018-07-24T06:20:08.556Z,48.45
2018-07-24T06:21:08.547Z,48.85
2018-07-24T06:22:08.536Z,48.65
2018-07-24T06:23:08.524Z,49.64
2018-07-24T06:24:08.532Z,48.47
2018-07-24T06:25:08.516Z,48.97
2018-07-24T06:26:08.491Z,49.66
2018-07-24T06:27:08.483Z,48.55
2018-07-24T06:28:08.472Z,48.65
2018-07-24T06:29:08.461Z,48.82
2018-07-24T06:30:08.464Z,49.00
2018-07-24T06:31:08.439Z,47.22
2018-07-24T06:32:08.425Z,47.71
2018-07-24T06:33:08.414Z,47.99
2018-07-24T06:34:08.406Z,48.08
2018-07-24T06:35:08.481Z,48.38
2018-07-24T06:36:08.384Z,48.46
2018-07-24T06:37:08.371Z,48.26
2018-07-24T06:38:08.359Z,48.08
2018-07-24T06:39:08.351Z,47.77
2018-07-24T06:40:08.339Z,48.16
2018-07-24T06:41:08.339Z,48.65
2018-07-24T06:42:08.334Z,48.14
2018-07-24T06:43:08.302Z,48.24
2018-07-24T06:44:08.298Z,47.54
2018-07-24T06:45:08.283Z,47.74
2018-07-24T06:46:08.271Z,47.03
2018-07-24T06:47:08.261Z,47.13
2018-07-24T06:48:08.260Z,47.32
2018-07-24T06:49:08.239Z,47.40
2018-07-24T06:50:08.229Z,47.00
2018-07-24T06:51:08.270Z,45.40
2018-07-24T06:52:08.222Z,45.20
2018-07-24T06:53:08.194Z,45.13
2018-07-24T06:54:08.186Z,45.70
2018-07-24T06:55:08.175Z,44.91
2018-07-24T06:56:08.165Z,44.22
2018-07-24T06:57:08.172Z,43.70
2018-07-24T06:58:08.144Z,43.41
2018-07-24T06:59:08.131Z,44.14
2018-07-24T07:00:08.124Z,44.73
2018-07-24T07:01:08.113Z,45.13
2018-07-24T07:02:08.208Z,46.00
2018-07-24T07:03:08.105Z,44.91
2018-07-24T07:04:08.080Z,44.10
2018-07-24T07:05:08.152Z,44.00
2018-07-24T07:06:08.060Z,44.98
2018-07-24T07:07:08.059Z,44.18
2018-07-24T07:08:08.035Z,44.18
2018-07-24T07:09:08.029Z,43.68
2018-07-24T07:10:08.037Z,42.97
2018-07-24T07:11:08.005Z,42.47
2018-07-24T07:12:08.010Z,43.03
2018-07-24T07:13:08.045Z,41.71
2018-07-24T07:14:07.988Z,40.13
2018-07-24T07:15:07.963Z,40.33
2018-07-24T07:16:07.972Z,40.70
2018-07-24T07:17:07.958Z,39.17
2018-07-24T07:18:07.934Z,39.64
2018-07-24T07:19:07.921Z,37.82
2018-07-24T07:20:07.928Z,37.00
2018-07-24T07:21:07.903Z,35.87
2018-07-24T07:22:07.901Z,36.02
2018-07-24T07:23:07.882Z,34.89
2018-07-24T07:24:07.869Z,34.27
2018-07-24T07:25:07.865Z,32.47
2018-07-24T07:26:07.867Z,32.76
2018-07-24T07:27:07.838Z,31.88
2018-07-24T07:28:07.836Z,32.18
2018-07-24T07:29:07.843Z,31.77
2018-07-24T07:30:07.806Z,32.59
2018-07-24T07:31:07.809Z,31.24
2018-07-24T07:32:07.814Z,31.51
2018-07-24T07:33:07.777Z,31.32
2018-07-24T07:34:07.766Z,32.13
2018-07-24T07:35:07.769Z,33.43
2018-07-24T07:36:07.745Z,33.02
2018-07-24T07:37:07.735Z,33.12
2018-07-24T07:38:07.728Z,33.41
2018-07-24T07:39:07.727Z,31.85
2018-07-24T07:40:07.719Z,32.63
2018-07-24T07:41:07.696Z,32.60
2018-07-24T07:42:07.700Z,32.49
2018-07-24T07:43:07.672Z,31.48
2018-07-24T07:44:07.665Z,30.32
2018-07-24T07:45:07.656Z,31.37
2018-07-24T07:46:07.659Z,30.80
2018-07-24T07:47:07.658Z,30.79
2018-07-24T07:48:07.622Z,31.01
2018-07-24T07:49:07.615Z,31.88
2018-07-24T07:50:07.602Z,31.68
2018-07-24T07:51:07.595Z,31.68
2018-07-24T07:52:07.585Z,30.32
2018-07-24T07:53:07.588Z,30.33
2018-07-24T07:54:07.566Z,31.01
2018-07-24T07:55:07.555Z,31.21
2018-07-24T07:56:07.542Z,31.30
2018-07-24T07:57:07.536Z,30.71
2018-07-24T07:58:07.557Z,31.10
2018-07-24T07:59:07.520Z,30.62
2018-07-24T08:00:07.506Z,30.24
2018-07-24T08:01:07.496Z,31.51
2018-07-24T08:02:07.486Z,31.24
2018-07-24T08:03:07.491Z,30.18
2018-07-24T08:04:07.466Z,31.85
2018-07-24T08:05:07.453Z,31.34
2018-07-24T08:06:07.445Z,31.63
2018-07-24T08:07:07.433Z,31.81
2018-07-24T08:08:07.435Z,31.73
2018-07-24T08:09:07.434Z,31.32
2018-07-24T08:10:07.401Z,31.81
2018-07-24T08:11:07.393Z,31.30
2018-07-24T08:12:07.384Z,31.01
2018-07-24T08:13:07.376Z,31.87
2018-07-24T08:14:07.395Z,30.79
2018-07-24T08:15:07.369Z,30.01
2018-07-24T08:16:07.343Z,31.21
2018-07-24T08:17:07.335Z,31.21
2018-07-24T08:18:07.324Z,30.35
2018-07-24T08:19:07.315Z,31.53
2018-07-24T08:20:07.319Z,32.03
2018-07-24T08:21:07.292Z,31.56
2018-07-24T08:22:07.283Z,32.26
2018-07-24T08:23:07.270Z,32.92
2018-07-24T08:24:07.263Z,32.62
2018-07-24T08:25:07.275Z,31.24
2018-07-24T08:26:07.246Z,31.34
2018-07-24T08:27:07.232Z,30.07
2018-07-24T08:28:07.234Z,31.46
2018-07-24T08:29:07.217Z,31.90
2018-07-24T08:30:07.204Z,32.87
2018-07-24T08:31:07.215Z,32.28
2018-07-24T08:32:07.184Z,31.20
2018-07-24T08:33:07.178Z,31.30
2018-07-24T08:34:07.183Z,32.24
2018-07-24T08:35:07.163Z,31.35
2018-07-24T08:36:07.163Z,30.47
2018-07-24T08:37:07.138Z,31.25
2018-07-24T08:38:07.128Z,30.31
2018-07-24T08:39:07.119Z,31.28
2018-07-24T08:40:07.109Z,31.28
2018-07-24T08:41:07.116Z,31.46
2018-07-24T08:42:07.090Z,31.46
2018-07-24T08:43:07.078Z,31.49
2018-07-24T08:44:07.068Z,33.25
2018-07-24T08:45:07.058Z,32.08
2018-07-24T08:46:07.048Z,31.28
2018-07-24T08:47:07.053Z,31.46
2018-07-24T08:48:07.049Z,31.37
2018-07-24T08:49:07.023Z,31.76
2018-07-24T08:50:07.013Z,31.17
2018-07-24T08:51:07.007Z,32.32
2018-07-24T08:52:07.007Z,32.03
2018-07-24T08:53:07.175Z,30.75
2018-07-24T08:54:07.114Z,31.22
2018-07-24T08:55:07.170Z,32.08
2018-07-24T08:56:06.950Z,29.47
2018-07-24T08:57:06.958Z,30.32
2018-07-24T08:58:06.934Z,31.64
2018-07-24T08:59:06.922Z,32.71
2018-07-24T09:00:06.912Z,32.42
2018-07-24T09:01:06.906Z,32.31
2018-07-24T09:02:06.909Z,31.60
2018-07-24T09:03:06.939Z,31.69
2018-07-24T09:04:06.898Z,31.30
2018-07-24T09:05:06.863Z,31.88
2018-07-24T09:06:06.858Z,31.09
2018-07-24T09:07:06.843Z,32.28
2018-07-24T09:08:06.848Z,31.49
2018-07-24T09:09:06.845Z,31.98
2018-07-24T09:10:06.838Z,31.20
2018-07-24T09:11:06.804Z,31.38
2018-07-24T09:12:06.797Z,31.49
2018-07-24T09:13:06.784Z,32.28
2018-07-24T09:14:06.778Z,32.18
2018-07-24T09:15:06.780Z,31.30
2018-07-24T09:16:06.759Z,31.38
2018-07-24T09:17:06.748Z,31.37
2018-07-24T09:18:06.739Z,30.77
2018-07-24T09:19:06.726Z,32.31
2018-07-24T09:20:06.730Z,31.04
2018-07-24T09:21:06.709Z,30.46
2018-07-24T09:22:06.697Z,30.07
2018-07-24T09:23:06.702Z,30.47
2018-07-24T09:24:06.683Z,31.77
2018-07-24T09:25:06.683Z,31.46
2018-07-24T09:26:06.659Z,32.23
2018-07-24T09:27:06.718Z,31.35
2018-07-24T09:28:06.656Z,32.50
2018-07-24T09:29:06.639Z,31.34
2018-07-24T09:30:06.626Z,31.11
2018-07-24T09:31:06.630Z,30.72
2018-07-24T09:32:06.668Z,30.54
2018-07-24T09:33:06.609Z,31.50
2018-07-24T09:34:06.586Z,31.03
2018-07-24T09:35:06.578Z,30.36
2018-07-24T09:36:06.566Z,31.59
2018-07-24T09:37:06.560Z,32.31
2018-07-24T09:38:06.559Z,32.21
2018-07-24T09:39:06.540Z,31.92
2018-07-24T09:40:06.530Z,32.29
2018-07-24T09:41:06.528Z,31.49
2018-07-24T09:42:06.513Z,31.57
2018-07-24T09:43:06.525Z,31.19
2018-07-24T09:44:06.491Z,31.56
2018-07-24T09:45:06.481Z,31.46
2018-07-24T09:46:06.469Z,31.66
2018-07-24T09:47:06.463Z,31.66
2018-07-24T09:48:06.450Z,30.47
2018-07-24T09:49:06.461Z,30.57
2018-07-24T09:50:06.430Z,30.87
2018-07-24T09:51:06.422Z,30.65
2018-07-24T09:52:06.409Z,30.36
2018-07-24T09:53:06.401Z,30.44
2018-07-24T09:54:06.393Z,30.74
2018-07-24T09:55:06.399Z,30.47
2018-07-24T09:56:06.373Z,31.28
2018-07-24T09:57:06.379Z,32.13
2018-07-24T09:58:06.359Z,33.90
2018-07-24T09:59:06.345Z,33.87
2018-07-24T10:00:06.354Z,32.29
2018-07-24T10:01:06.329Z,32.35
2018-07-24T10:02:06.320Z,31.17
2018-07-24T10:03:06.309Z,30.67
2018-07-24T10:04:06.303Z,32.40
2018-07-24T10:05:06.304Z,31.22
2018-07-24T10:06:06.297Z,30.54
2018-07-24T10:07:06.273Z,30.04
2018-07-24T10:08:06.266Z,30.51
2018-07-24T10:09:06.253Z,30.50
2018-07-24T10:10:06.286Z,30.98
2018-07-24T10:11:06.326Z,29.90
2018-07-24T10:12:06.298Z,29.43
2018-07-24T10:13:06.372Z,29.51
2018-07-24T10:14:06.209Z,29.32
2018-07-24T10:15:06.209Z,29.02
2018-07-24T10:16:06.207Z,29.72
2018-07-24T10:17:06.181Z,29.43
2018-07-24T10:18:06.172Z,29.43
2018-07-24T10:19:06.163Z,30.01
2018-07-24T10:20:06.153Z,30.21
2018-07-24T10:21:06.164Z,29.51
2018-07-24T10:22:06.135Z,28.93
2018-07-24T10:23:06.125Z,28.83
2018-07-24T10:24:06.117Z,29.61
2018-07-24T10:25:06.109Z,29.51
2018-07-24T10:26:06.118Z,30.68
2018-07-24T10:27:06.090Z,29.90
2018-07-24T10:28:06.084Z,28.85
2018-07-24T10:29:06.070Z,29.36
2018-07-24T10:30:06.067Z,30.36
2018-07-24T10:31:06.070Z,31.28
2018-07-24T10:32:06.046Z,31.30
2018-07-24T10:33:06.075Z,32.18
2018-07-24T10:34:06.025Z,31.70
2018-07-24T10:35:06.019Z,31.90
2018-07-24T10:36:06.009Z,32.28
2018-07-24T10:37:05.999Z,32.43
2018-07-24T10:38:05.992Z,31.35
2018-07-24T10:39:05.996Z,31.34
2018-07-24T10:40:05.974Z,30.17
2018-07-24T10:41:05.964Z,31.37
2018-07-24T10:42:05.967Z,30.78
2018-07-24T10:43:05.954Z,30.77
2018-07-24T10:44:05.979Z,30.39
2018-07-24T10:45:05.932Z,31.37
2018-07-24T10:46:05.919Z,31.73
2018-07-24T10:47:05.911Z,30.67
2018-07-24T10:48:05.899Z,30.67
2018-07-24T10:49:05.889Z,31.63
2018-07-24T10:50:05.893Z,31.13
2018-07-24T10:51:05.871Z,30.43
2018-07-24T10:52:05.865Z,30.41
2018-07-24T10:53:05.853Z,30.11
2018-07-24T10:54:05.848Z,30.50
2018-07-24T10:55:05.854Z,30.30
2018-07-24T10:56:05.830Z,30.40
2018-07-24T10:57:05.821Z,30.00
2018-07-24T10:58:05.814Z,29.98
2018-07-24T10:59:05.816Z,29.21
2018-07-24T11:00:05.808Z,30.07
2018-07-24T11:01:05.782Z,29.51
2018-07-24T11:02:05.795Z,29.75
2018-07-24T11:03:05.763Z,30.38
2018-07-24T11:04:05.765Z,31.87
2018-07-24T11:05:05.745Z,32.94
2018-07-24T11:06:05.751Z,31.85
2018-07-24T11:07:05.730Z,32.50
2018-07-24T11:08:05.746Z,31.32
2018-07-24T11:09:05.708Z,31.21
2018-07-24T11:10:05.700Z,30.43
2018-07-24T11:11:05.763Z,30.64
2018-07-24T11:12:05.683Z,30.14
2018-07-24T11:13:05.675Z,30.41
2018-07-24T11:14:05.687Z,30.41
2018-07-24T11:15:05.658Z,30.02
2018-07-24T11:16:05.646Z,30.30
2018-07-24T11:17:05.640Z,30.19
2018-07-24T11:18:05.630Z,29.14
2018-07-24T11:19:05.620Z,29.14
2018-07-24T11:20:10.762Z,29.74
2018-07-24T11:21:05.601Z,31.21
2018-07-24T11:22:05.728Z,30.62
2018-07-24T11:23:05.725Z,29.36
2018-07-24T11:24:05.611Z,30.15
2018-07-24T11:25:05.580Z,30.25
2018-07-24T11:26:05.561Z,30.46
2018-07-24T11:27:05.548Z,30.83
2018-07-24T11:28:05.555Z,31.24
2018-07-24T11:29:05.529Z,30.58
2018-07-24T11:30:05.531Z,32.18
2018-07-24T11:31:05.512Z,32.39
2018-07-24T11:32:05.502Z,33.17
2018-07-24T11:33:05.549Z,32.47
2018-07-24T11:34:05.484Z,32.47
2018-07-24T11:35:05.486Z,32.94
2018-07-24T11:36:05.587Z,31.56
2018-07-24T11:37:05.458Z,31.25
2018-07-24T11:38:05.452Z,31.24
2018-07-24T11:39:05.440Z,30.75
2018-07-24T11:40:05.445Z,31.27
2018-07-24T11:41:05.498Z,32.67
2018-07-24T11:42:05.411Z,32.96
2018-07-24T11:43:05.404Z,32.87
2018-07-24T11:44:05.451Z,32.78
2018-07-24T11:45:05.385Z,32.28
2018-07-24T11:46:05.392Z,32.35
2018-07-24T11:47:05.367Z,31.30
2018-07-24T11:48:05.357Z,31.19
2018-07-24T11:49:05.366Z,32.94
2018-07-24T11:50:05.340Z,32.43
2018-07-24T11:51:05.345Z,32.40
2018-07-24T11:52:05.334Z,31.51
2018-07-24T11:53:05.312Z,30.33
2018-07-24T11:54:05.306Z,30.32
2018-07-24T11:55:05.310Z,30.21
2018-07-24T11:56:05.286Z,29.32
2018-07-24T11:57:05.294Z,29.80
2018-07-24T11:58:05.267Z,30.19
2018-07-24T11:59:05.259Z,29.21
2018-07-24T12:00:05.269Z,29.11
2018-07-24T12:01:05.241Z,29.50
2018-07-24T12:02:05.234Z,29.28
2018-07-24T12:03:05.223Z,28.80
2018-07-24T12:04:05.214Z,28.90
2018-07-24T12:05:05.205Z,28.81
2018-07-24T12:06:05.211Z,29.30
2018-07-24T12:07:05.186Z,29.19
2018-07-24T12:08:05.195Z,29.30
2018-07-24T12:09:05.182Z,29.10
2018-07-24T12:10:05.159Z,29.38
2018-07-24T12:11:05.165Z,28.80
2018-07-24T12:12:05.147Z,29.00
2018-07-24T12:13:05.132Z,28.98
2018-07-24T12:14:05.124Z,28.79
2018-07-24T12:15:05.145Z,28.79
2018-07-24T12:16:05.119Z,28.80
2018-07-24T12:17:05.096Z,29.38
2018-07-24T12:18:05.089Z,29.27
2018-07-24T12:19:05.078Z,28.33
2018-07-24T12:20:05.073Z,30.27
2018-07-24T12:21:05.079Z,29.30
2018-07-24T12:22:05.050Z,29.10
2018-07-24T12:23:05.043Z,29.27
2018-07-24T12:24:05.034Z,29.27
2018-07-24T12:25:05.024Z,29.26
2018-07-24T12:26:05.032Z,27.51
2018-07-24T12:27:05.056Z,27.98
2018-07-24T12:28:04.999Z,28.29
2018-07-24T12:29:05.003Z,27.91
2018-07-24T12:30:04.981Z,28.19
2018-07-24T12:31:04.972Z,29.06
2018-07-24T12:32:04.962Z,28.19
2018-07-24T12:33:04.966Z,27.72
2018-07-24T12:34:04.944Z,29.08
2018-07-24T12:35:04.937Z,28.40
2018-07-24T12:36:04.986Z,27.92
2018-07-24T12:37:04.918Z,29.55
2018-07-24T12:38:04.909Z,27.61
2018-07-24T12:39:04.901Z,29.06
2018-07-24T12:40:04.892Z,29.06
2018-07-24T12:41:04.884Z,29.06
2018-07-24T12:42:04.910Z,28.77
2018-07-24T12:43:04.897Z,28.58
2018-07-24T12:44:04.857Z,29.06
2018-07-24T12:45:04.848Z,28.87
2018-07-24T12:46:04.840Z,29.05
2018-07-24T12:47:04.830Z,27.89
2018-07-24T12:48:04.822Z,27.39
2018-07-24T12:49:04.828Z,27.40
2018-07-24T12:50:04.819Z,27.79
2018-07-24T12:51:04.795Z,28.18
2018-07-24T12:52:04.787Z,28.68